sensor_id;sensor_type;location;lat;lon;timestamp;P1;durP1;ratioP1;P2;durP2;ratioP2
35394;SDS011;21500;45.308;9.488;2023-04-24T00:00:09;6.65;;;5.47;;
35394;SDS011;21500;45.308;9.488;2023-04-24T00:02:35;7.97;;;5.57;;
35394;SDS011;21500;45.308;9.488;2023-04-24T00:05:05;5.82;;;4.85;;
35394;SDS011;21500;45.308;9.488;2023-04-24T00:07:32;8.43;;;5.68;;
35394;SDS011;21500;45.308;9.488;2023-04-24T00:09:58;6.90;;;6.20;;
35394;SDS011;21500;45.308;9.488;2023-04-24T00:12:25;6.47;;;5.38;;
35394;SDS011;21500;45.308;9.488;2023-04-24T00:14:51;6.78;;;4.60;;
35394;SDS011;21500;45.308;9.488;2023-04-24T00:17:16;8.65;;;5.32;;
35394;SDS011;21500;45.308;9.488;2023-04-24T00:19:46;7.07;;;5.35;;
35394;SDS011;21500;45.308;9.488;2023-04-24T00:22:23;6.38;;;5.78;;
35394;SDS011;21500;45.308;9.488;2023-04-24T00:24:50;6.57;;;5.35;;
35394;SDS011;21500;45.308;9.488;2023-04-24T00:27:16;5.57;;;5.07;;
35394;SDS011;21500;45.308;9.488;2023-04-24T00:29:41;5.93;;;5.32;;
35394;SDS011;21500;45.308;9.488;2023-04-24T00:32:07;6.88;;;5.43;;
35394;SDS011;21500;45.308;9.488;2023-04-24T00:34:33;6.75;;;5.50;;
35394;SDS011;21500;45.308;9.488;2023-04-24T00:36:59;6.20;;;5.38;;
35394;SDS011;21500;45.308;9.488;2023-04-24T00:39:24;7.30;;;5.93;;
35394;SDS011;21500;45.308;9.488;2023-04-24T00:41:50;7.15;;;5.72;;
35394;SDS011;21500;45.308;9.488;2023-04-24T00:44:16;5.95;;;5.25;;
35394;SDS011;21500;45.308;9.488;2023-04-24T00:46:42;8.95;;;5.35;;
35394;SDS011;21500;45.308;9.488;2023-04-24T00:49:08;13.20;;;6.68;;
35394;SDS011;21500;45.308;9.488;2023-04-24T00:51:34;6.90;;;5.65;;
35394;SDS011;21500;45.308;9.488;2023-04-24T00:54:01;7.03;;;6.00;;
35394;SDS011;21500;45.308;9.488;2023-04-24T00:56:27;7.70;;;5.50;;
35394;SDS011;21500;45.308;9.488;2023-04-24T00:58:53;7.95;;;6.55;;
35394;SDS011;21500;45.308;9.488;2023-04-24T01:01:20;7.95;;;6.40;;
35394;SDS011;21500;45.308;9.488;2023-04-24T01:03:46;6.65;;;5.43;;
35394;SDS011;21500;45.308;9.488;2023-04-24T01:06:14;8.18;;;6.35;;
35394;SDS011;21500;45.308;9.488;2023-04-24T01:08:40;10.10;;;6.63;;
35394;SDS011;21500;45.308;9.488;2023-04-24T01:11:06;8.18;;;6.03;;
35394;SDS011;21500;45.308;9.488;2023-04-24T01:13:32;10.00;;;7.53;;
35394;SDS011;21500;45.308;9.488;2023-04-24T01:15:59;8.32;;;6.63;;
35394;SDS011;21500;45.308;9.488;2023-04-24T01:18:26;8.63;;;5.45;;
35394;SDS011;21500;45.308;9.488;2023-04-24T01:20:53;11.80;;;7.25;;
35394;SDS011;21500;45.308;9.488;2023-04-24T01:23:23;6.63;;;6.00;;
35394;SDS011;21500;45.308;9.488;2023-04-24T01:25:50;6.28;;;5.47;;
35394;SDS011;21500;45.308;9.488;2023-04-24T01:28:17;6.57;;;5.95;;
35394;SDS011;21500;45.308;9.488;2023-04-24T01:30:43;6.63;;;6.00;;
35394;SDS011;21500;45.308;9.488;2023-04-24T01:33:09;6.18;;;5.57;;
35394;SDS011;21500;45.308;9.488;2023-04-24T01:35:36;7.03;;;6.32;;
35394;SDS011;21500;45.308;9.488;2023-04-24T01:38:02;6.68;;;5.97;;
35394;SDS011;21500;45.308;9.488;2023-04-24T01:40:29;8.35;;;6.00;;
35394;SDS011;21500;45.308;9.488;2023-04-24T01:42:57;7.78;;;5.85;;
35394;SDS011;21500;45.308;9.488;2023-04-24T01:45:23;9.02;;;6.05;;
35394;SDS011;21500;45.308;9.488;2023-04-24T01:47:49;6.72;;;6.13;;
35394;SDS011;21500;45.308;9.488;2023-04-24T01:50:16;6.07;;;5.47;;
35394;SDS011;21500;45.308;9.488;2023-04-24T01:52:42;7.35;;;6.03;;
35394;SDS011;21500;45.308;9.488;2023-04-24T01:55:09;9.50;;;6.15;;
35394;SDS011;21500;45.308;9.488;2023-04-24T01:57:35;8.63;;;6.63;;
35394;SDS011;21500;45.308;9.488;2023-04-24T02:00:02;6.63;;;6.03;;
35394;SDS011;21500;45.308;9.488;2023-04-24T02:02:41;8.68;;;6.70;;
35394;SDS011;21500;45.308;9.488;2023-04-24T02:05:07;10.15;;;6.82;;
35394;SDS011;21500;45.308;9.488;2023-04-24T02:07:35;8.88;;;6.90;;
35394;SDS011;21500;45.308;9.488;2023-04-24T02:10:01;10.93;;;8.02;;
35394;SDS011;21500;45.308;9.488;2023-04-24T02:12:29;8.98;;;8.07;;
35394;SDS011;21500;45.308;9.488;2023-04-24T02:14:55;8.10;;;6.95;;
35394;SDS011;21500;45.308;9.488;2023-04-24T02:17:20;7.97;;;7.18;;
35394;SDS011;21500;45.308;9.488;2023-04-24T02:19:46;8.75;;;7.25;;
35394;SDS011;21500;45.308;9.488;2023-04-24T02:22:12;9.43;;;7.03;;
35394;SDS011;21500;45.308;9.488;2023-04-24T02:24:38;8.95;;;7.43;;
35394;SDS011;21500;45.308;9.488;2023-04-24T02:27:05;8.63;;;7.75;;
35394;SDS011;21500;45.308;9.488;2023-04-24T02:29:31;8.88;;;8.00;;
35394;SDS011;21500;45.308;9.488;2023-04-24T02:31:57;8.90;;;8.05;;
35394;SDS011;21500;45.308;9.488;2023-04-24T02:34:23;8.73;;;7.50;;
35394;SDS011;21500;45.308;9.488;2023-04-24T02:36:49;8.85;;;6.75;;
35394;SDS011;21500;45.308;9.488;2023-04-24T02:39:15;7.25;;;6.53;;
35394;SDS011;21500;45.308;9.488;2023-04-24T02:41:43;9.57;;;7.30;;
35394;SDS011;21500;45.308;9.488;2023-04-24T02:44:09;9.75;;;6.90;;
35394;SDS011;21500;45.308;9.488;2023-04-24T02:46:35;12.38;;;7.65;;
35394;SDS011;21500;45.308;9.488;2023-04-24T02:49:01;8.80;;;7.78;;
35394;SDS011;21500;45.308;9.488;2023-04-24T02:51:28;6.95;;;6.25;;
35394;SDS011;21500;45.308;9.488;2023-04-24T02:53:54;7.43;;;6.65;;
35394;SDS011;21500;45.308;9.488;2023-04-24T02:56:19;10.32;;;7.70;;
35394;SDS011;21500;45.308;9.488;2023-04-24T02:58:45;8.20;;;7.38;;
35394;SDS011;21500;45.308;9.488;2023-04-24T03:01:11;9.13;;;7.28;;
35394;SDS011;21500;45.308;9.488;2023-04-24T03:03:37;7.85;;;7.05;;
35394;SDS011;21500;45.308;9.488;2023-04-24T03:06:04;7.18;;;6.28;;
35394;SDS011;21500;45.308;9.488;2023-04-24T03:08:33;10.98;;;8.25;;
35394;SDS011;21500;45.308;9.488;2023-04-24T03:10:59;8.82;;;7.93;;
35394;SDS011;21500;45.308;9.488;2023-04-24T03:13:25;9.05;;;7.75;;
35394;SDS011;21500;45.308;9.488;2023-04-24T03:15:51;10.52;;;7.95;;
35394;SDS011;21500;45.308;9.488;2023-04-24T03:18:18;8.82;;;7.28;;
35394;SDS011;21500;45.308;9.488;2023-04-24T03:20:45;9.43;;;8.18;;
35394;SDS011;21500;45.308;9.488;2023-04-24T03:23:12;8.77;;;7.97;;
35394;SDS011;21500;45.308;9.488;2023-04-24T03:25:38;9.05;;;8.18;;
35394;SDS011;21500;45.308;9.488;2023-04-24T03:28:05;9.98;;;7.80;;
35394;SDS011;21500;45.308;9.488;2023-04-24T03:30:38;9.15;;;7.82;;
35394;SDS011;21500;45.308;9.488;2023-04-24T03:33:05;9.15;;;8.25;;
35394;SDS011;21500;45.308;9.488;2023-04-24T03:35:35;8.95;;;8.02;;
35394;SDS011;21500;45.308;9.488;2023-04-24T03:38:04;10.73;;;9.02;;
35394;SDS011;21500;45.308;9.488;2023-04-24T03:40:52;10.13;;;8.38;;
35394;SDS011;21500;45.308;9.488;2023-04-24T03:43:41;9.60;;;8.63;;
35394;SDS011;21500;45.308;9.488;2023-04-24T03:46:07;9.13;;;8.23;;
35394;SDS011;21500;45.308;9.488;2023-04-24T03:48:38;9.77;;;8.77;;
35394;SDS011;21500;45.308;9.488;2023-04-24T03:51:05;10.30;;;8.75;;
35394;SDS011;21500;45.308;9.488;2023-04-24T03:53:33;10.20;;;9.05;;
35394;SDS011;21500;45.308;9.488;2023-04-24T03:55:59;10.90;;;8.85;;
35394;SDS011;21500;45.308;9.488;2023-04-24T03:58:25;10.38;;;8.85;;
35394;SDS011;21500;45.308;9.488;2023-04-24T04:00:53;9.73;;;8.82;;
35394;SDS011;21500;45.308;9.488;2023-04-24T04:03:44;10.73;;;9.77;;
35394;SDS011;21500;45.308;9.488;2023-04-24T04:06:10;11.07;;;9.27;;
35394;SDS011;21500;45.308;9.488;2023-04-24T04:08:38;11.00;;;9.85;;
35394;SDS011;21500;45.308;9.488;2023-04-24T04:11:04;10.10;;;9.02;;
35394;SDS011;21500;45.308;9.488;2023-04-24T04:13:30;10.35;;;9.45;;
35394;SDS011;21500;45.308;9.488;2023-04-24T04:15:56;13.63;;;9.60;;
35394;SDS011;21500;45.308;9.488;2023-04-24T04:18:22;11.35;;;9.75;;
35394;SDS011;21500;45.308;9.488;2023-04-24T04:20:48;11.77;;;10.52;;
35394;SDS011;21500;45.308;9.488;2023-04-24T04:23:15;12.30;;;11.00;;
35394;SDS011;21500;45.308;9.488;2023-04-24T04:26:11;11.90;;;10.65;;
35394;SDS011;21500;45.308;9.488;2023-04-24T04:28:51;10.93;;;9.82;;
35394;SDS011;21500;45.308;9.488;2023-04-24T04:35:06;13.15;;;11.85;;
35394;SDS011;21500;45.308;9.488;2023-04-24T04:37:33;13.90;;;12.20;;
35394;SDS011;21500;45.308;9.488;2023-04-24T04:40:17;13.50;;;11.73;;
35394;SDS011;21500;45.308;9.488;2023-04-24T04:42:50;13.57;;;12.23;;
35394;SDS011;21500;45.308;9.488;2023-04-24T04:46:01;14.82;;;12.35;;
35394;SDS011;21500;45.308;9.488;2023-04-24T05:05:03;15.73;;;13.83;;
35394;SDS011;21500;45.308;9.488;2023-04-24T05:42:59;15.52;;;13.65;;
35394;SDS011;21500;45.308;9.488;2023-04-24T05:45:24;17.73;;;13.70;;
35394;SDS011;21500;45.308;9.488;2023-04-24T05:47:50;14.00;;;12.50;;
35394;SDS011;21500;45.308;9.488;2023-04-24T05:50:17;15.73;;;13.98;;
35394;SDS011;21500;45.308;9.488;2023-04-24T05:52:43;16.17;;;14.23;;
35394;SDS011;21500;45.308;9.488;2023-04-24T07:54:12;12.75;;;11.45;;
35394;SDS011;21500;45.308;9.488;2023-04-24T08:58:53;8.95;;;8.05;;
35394;SDS011;21500;45.308;9.488;2023-04-24T09:01:25;9.27;;;7.28;;
35394;SDS011;21500;45.308;9.488;2023-04-24T09:04:24;8.05;;;7.32;;
35394;SDS011;21500;45.308;9.488;2023-04-24T09:06:56;6.95;;;6.22;;
35394;SDS011;21500;45.308;9.488;2023-04-24T09:12:42;9.48;;;6.40;;
35394;SDS011;21500;45.308;9.488;2023-04-24T09:19:09;8.05;;;7.32;;
35394;SDS011;21500;45.308;9.488;2023-04-24T09:21:38;6.57;;;5.97;;
35394;SDS011;21500;45.308;9.488;2023-04-24T09:24:14;7.85;;;7.07;;
35394;SDS011;21500;45.308;9.488;2023-04-24T09:26:45;7.75;;;6.95;;
35394;SDS011;21500;45.308;9.488;2023-04-24T09:29:15;8.65;;;6.47;;
35394;SDS011;21500;45.308;9.488;2023-04-24T09:31:52;6.90;;;6.30;;
35394;SDS011;21500;45.308;9.488;2023-04-24T09:34:28;7.95;;;6.53;;
35394;SDS011;21500;45.308;9.488;2023-04-24T09:37:00;8.85;;;7.20;;
35394;SDS011;21500;45.308;9.488;2023-04-24T09:39:28;8.80;;;6.75;;
35394;SDS011;21500;45.308;9.488;2023-04-24T09:41:55;7.57;;;6.78;;
35394;SDS011;21500;45.308;9.488;2023-04-24T09:44:26;8.57;;;7.50;;
35394;SDS011;21500;45.308;9.488;2023-04-24T09:46:55;10.18;;;6.28;;
35394;SDS011;21500;45.308;9.488;2023-04-24T09:49:28;5.90;;;4.97;;
35394;SDS011;21500;45.308;9.488;2023-04-24T09:52:06;7.68;;;6.15;;
35394;SDS011;21500;45.308;9.488;2023-04-24T09:54:39;7.70;;;6.75;;
35394;SDS011;21500;45.308;9.488;2023-04-24T09:57:22;6.40;;;5.28;;
35394;SDS011;21500;45.308;9.488;2023-04-24T09:59:53;5.60;;;5.10;;
35394;SDS011;21500;45.308;9.488;2023-04-24T10:02:19;6.18;;;5.65;;
35394;SDS011;21500;45.308;9.488;2023-04-24T10:04:58;6.15;;;5.55;;
35394;SDS011;21500;45.308;9.488;2023-04-24T10:07:32;15.75;;;7.90;;
35394;SDS011;21500;45.308;9.488;2023-04-24T10:10:02;8.75;;;5.88;;
35394;SDS011;21500;45.308;9.488;2023-04-24T10:12:31;6.38;;;5.78;;
35394;SDS011;21500;45.308;9.488;2023-04-24T10:14:58;5.25;;;4.47;;
35394;SDS011;21500;45.308;9.488;2023-04-24T10:17:28;6.47;;;4.90;;
35394;SDS011;21500;45.308;9.488;2023-04-24T10:20:01;4.65;;;4.07;;
35394;SDS011;21500;45.308;9.488;2023-04-24T10:22:53;6.03;;;4.60;;
35394;SDS011;21500;45.308;9.488;2023-04-24T10:25:20;6.68;;;4.93;;
35394;SDS011;21500;45.308;9.488;2023-04-24T10:27:47;5.22;;;4.75;;
35394;SDS011;21500;45.308;9.488;2023-04-24T10:30:15;5.00;;;4.25;;
35394;SDS011;21500;45.308;9.488;2023-04-24T10:32:42;4.63;;;4.10;;
35394;SDS011;21500;45.308;9.488;2023-04-24T10:35:08;4.38;;;3.47;;
35394;SDS011;21500;45.308;9.488;2023-04-24T10:37:39;5.88;;;4.60;;
35394;SDS011;21500;45.308;9.488;2023-04-24T10:40:10;8.32;;;5.03;;
35394;SDS011;21500;45.308;9.488;2023-04-24T10:42:40;4.53;;;3.78;;
35394;SDS011;21500;45.308;9.488;2023-04-24T10:45:18;5.22;;;3.35;;
35394;SDS011;21500;45.308;9.488;2023-04-24T10:47:56;6.35;;;4.53;;
35394;SDS011;21500;45.308;9.488;2023-04-24T10:50:26;6.18;;;3.33;;
35394;SDS011;21500;45.308;9.488;2023-04-24T10:52:52;5.43;;;3.83;;
35394;SDS011;21500;45.308;9.488;2023-04-24T10:55:41;4.90;;;3.58;;
35394;SDS011;21500;45.308;9.488;2023-04-24T10:58:14;4.00;;;2.33;;
35394;SDS011;21500;45.308;9.488;2023-04-24T11:00:42;2.97;;;2.60;;
35394;SDS011;21500;45.308;9.488;2023-04-24T11:03:26;3.35;;;2.42;;
35394;SDS011;21500;45.308;9.488;2023-04-24T11:06:00;3.63;;;2.83;;
35394;SDS011;21500;45.308;9.488;2023-04-24T11:08:29;3.90;;;3.45;;
35394;SDS011;21500;45.308;9.488;2023-04-24T11:11:00;3.60;;;3.30;;
35394;SDS011;21500;45.308;9.488;2023-04-24T11:28:07;3.42;;;2.45;;
35394;SDS011;21500;45.308;9.488;2023-04-24T11:30:44;2.75;;;2.40;;
35394;SDS011;21500;45.308;9.488;2023-04-24T11:33:19;3.03;;;2.30;;
35394;SDS011;21500;45.308;9.488;2023-04-24T11:38:53;2.38;;;1.88;;
35394;SDS011;21500;45.308;9.488;2023-04-24T11:41:21;3.38;;;1.63;;
35394;SDS011;21500;45.308;9.488;2023-04-24T11:43:47;2.42;;;1.77;;
35394;SDS011;21500;45.308;9.488;2023-04-24T11:46:16;0.90;;;0.90;;
35394;SDS011;21500;45.308;9.488;2023-04-24T11:48:44;3.08;;;1.60;;
35394;SDS011;21500;45.308;9.488;2023-04-24T11:51:12;3.08;;;1.58;;
35394;SDS011;21500;45.308;9.488;2023-04-24T11:53:39;3.90;;;1.75;;
35394;SDS011;21500;45.308;9.488;2023-04-24T11:56:05;1.27;;;1.13;;
35394;SDS011;21500;45.308;9.488;2023-04-24T11:58:37;2.10;;;1.73;;
35394;SDS011;21500;45.308;9.488;2023-04-24T12:01:09;1.75;;;1.30;;
35394;SDS011;21500;45.308;9.488;2023-04-24T13:00:02;1.33;;;0.90;;
35394;SDS011;21500;45.308;9.488;2023-04-24T13:02:37;0.57;;;0.57;;
35394;SDS011;21500;45.308;9.488;2023-04-24T13:05:26;0.40;;;0.40;;
35394;SDS011;21500;45.308;9.488;2023-04-24T13:07:53;0.50;;;0.30;;
35394;SDS011;21500;45.308;9.488;2023-04-24T13:10:28;2.03;;;0.75;;
35394;SDS011;21500;45.308;9.488;2023-04-24T13:12:56;0.65;;;0.50;;
35394;SDS011;21500;45.308;9.488;2023-04-24T13:15:22;0.25;;;0.25;;
35394;SDS011;21500;45.308;9.488;2023-04-24T13:17:48;0.57;;;0.40;;
35394;SDS011;21500;45.308;9.488;2023-04-24T13:20:16;0.55;;;0.35;;
35394;SDS011;21500;45.308;9.488;2023-04-24T13:22:43;0.10;;;0.10;;
35394;SDS011;21500;45.308;9.488;2023-04-24T13:49:21;1.45;;;0.38;;
35394;SDS011;21500;45.308;9.488;2023-04-24T13:51:50;0.25;;;0.25;;
35394;SDS011;21500;45.308;9.488;2023-04-24T13:54:16;0.65;;;0.43;;
35394;SDS011;21500;45.308;9.488;2023-04-24T13:56:42;0.30;;;0.28;;
35394;SDS011;21500;45.308;9.488;2023-04-24T13:59:08;0.20;;;0.20;;
35394;SDS011;21500;45.308;9.488;2023-04-24T14:01:34;0.25;;;0.25;;
35394;SDS011;21500;45.308;9.488;2023-04-24T14:04:01;0.70;;;0.30;;
35394;SDS011;21500;45.308;9.488;2023-04-24T14:06:27;0.47;;;0.20;;
35394;SDS011;21500;45.308;9.488;2023-04-24T14:08:53;0.10;;;0.10;;
35394;SDS011;21500;45.308;9.488;2023-04-24T14:11:19;0.10;;;0.10;;
35394;SDS011;21500;45.308;9.488;2023-04-24T14:13:45;0.20;;;0.20;;
35394;SDS011;21500;45.308;9.488;2023-04-24T14:16:11;0.20;;;0.17;;
35394;SDS011;21500;45.308;9.488;2023-04-24T14:18:38;0.57;;;0.50;;
35394;SDS011;21500;45.308;9.488;2023-04-24T14:21:04;0.20;;;0.20;;
35394;SDS011;21500;45.308;9.488;2023-04-24T14:23:30;0.10;;;0.10;;
35394;SDS011;21500;45.308;9.488;2023-04-24T14:25:57;1.20;;;0.20;;
35394;SDS011;21500;45.308;9.488;2023-04-24T14:28:23;1.05;;;0.20;;
35394;SDS011;21500;45.308;9.488;2023-04-24T14:30:50;0.30;;;0.10;;
35394;SDS011;21500;45.308;9.488;2023-04-24T14:33:19;0.20;;;0.17;;
35394;SDS011;21500;45.308;9.488;2023-04-24T14:39:24;0.35;;;0.13;;
35394;SDS011;21500;45.308;9.488;2023-04-24T14:42:24;0.68;;;0.20;;
35394;SDS011;21500;45.308;9.488;2023-04-24T14:44:51;0.17;;;0.10;;
35394;SDS011;21500;45.308;9.488;2023-04-24T14:47:17;1.48;;;0.20;;
35394;SDS011;21500;45.308;9.488;2023-04-24T14:50:29;1.05;;;0.30;;
35394;SDS011;21500;45.308;9.488;2023-04-24T14:58:12;1.35;;;0.28;;
35394;SDS011;21500;45.308;9.488;2023-04-24T15:00:38;2.75;;;0.30;;
35394;SDS011;21500;45.308;9.488;2023-04-24T15:03:05;10.85;;;1.08;;
35394;SDS011;21500;45.308;9.488;2023-04-24T15:05:32;5.40;;;0.50;;
35394;SDS011;21500;45.308;9.488;2023-04-24T15:07:58;0.73;;;0.35;;
35394;SDS011;21500;45.308;9.488;2023-04-24T15:10:23;3.70;;;0.40;;
35394;SDS011;21500;45.308;9.488;2023-04-24T15:12:50;1.25;;;0.30;;
35394;SDS011;21500;45.308;9.488;2023-04-24T15:15:17;6.95;;;0.60;;
35394;SDS011;21500;45.308;9.488;2023-04-24T15:17:46;3.63;;;0.35;;
35394;SDS011;21500;45.308;9.488;2023-04-24T15:20:11;2.75;;;0.40;;
35394;SDS011;21500;45.308;9.488;2023-04-24T15:22:37;0.73;;;0.25;;
35394;SDS011;21500;45.308;9.488;2023-04-24T15:25:03;0.85;;;0.52;;
35394;SDS011;21500;45.308;9.488;2023-04-24T15:27:43;0.35;;;0.20;;
35394;SDS011;21500;45.308;9.488;2023-04-24T15:30:10;0.25;;;0.20;;
35394;SDS011;21500;45.308;9.488;2023-04-24T15:32:38;0.30;;;0.20;;
35394;SDS011;21500;45.308;9.488;2023-04-24T15:35:04;0.45;;;0.22;;
35394;SDS011;21500;45.308;9.488;2023-04-24T15:37:30;0.57;;;0.32;;
35394;SDS011;21500;45.308;9.488;2023-04-24T15:45:20;0.60;;;0.30;;
35394;SDS011;21500;45.308;9.488;2023-04-24T15:47:47;2.10;;;0.60;;
35394;SDS011;21500;45.308;9.488;2023-04-24T15:50:13;0.82;;;0.38;;
35394;SDS011;21500;45.308;9.488;2023-04-24T15:52:42;0.28;;;0.28;;
35394;SDS011;21500;45.308;9.488;2023-04-24T15:55:08;0.65;;;0.30;;
35394;SDS011;21500;45.308;9.488;2023-04-24T15:57:34;1.48;;;0.40;;
35394;SDS011;21500;45.308;9.488;2023-04-24T16:00:02;0.45;;;0.20;;
35394;SDS011;21500;45.308;9.488;2023-04-24T16:02:36;0.63;;;0.32;;
35394;SDS011;21500;45.308;9.488;2023-04-24T16:05:02;0.75;;;0.60;;
35394;SDS011;21500;45.308;9.488;2023-04-24T16:07:29;0.73;;;0.40;;
35394;SDS011;21500;45.308;9.488;2023-04-24T16:09:56;0.77;;;0.40;;
35394;SDS011;21500;45.308;9.488;2023-04-24T16:12:28;1.42;;;0.63;;
35394;SDS011;21500;45.308;9.488;2023-04-24T16:55:24;1.30;;;0.38;;
35394;SDS011;21500;45.308;9.488;2023-04-24T16:57:50;2.70;;;0.57;;
35394;SDS011;21500;45.308;9.488;2023-04-24T17:00:16;1.95;;;0.63;;
35394;SDS011;21500;45.308;9.488;2023-04-24T18:10:12;0.77;;;0.40;;
35394;SDS011;21500;45.308;9.488;2023-04-24T18:20:44;4.65;;;0.70;;
35394;SDS011;21500;45.308;9.488;2023-04-24T20:09:10;0.50;;;0.40;;
35394;SDS011;21500;45.308;9.488;2023-04-24T20:15:11;0.50;;;0.30;;
35394;SDS011;21500;45.308;9.488;2023-04-24T20:17:38;2.90;;;0.50;;
35394;SDS011;21500;45.308;9.488;2023-04-24T20:30:51;3.35;;;2.28;;
35394;SDS011;21500;45.308;9.488;2023-04-24T20:33:18;4.30;;;2.70;;
35394;SDS011;21500;45.308;9.488;2023-04-24T20:35:44;3.28;;;2.58;;
35394;SDS011;21500;45.308;9.488;2023-04-24T20:38:10;8.30;;;3.47;;
35394;SDS011;21500;45.308;9.488;2023-04-24T20:40:36;5.32;;;3.78;;
35394;SDS011;21500;45.308;9.488;2023-04-24T20:43:02;5.63;;;3.65;;
35394;SDS011;21500;45.308;9.488;2023-04-24T20:45:29;6.85;;;4.00;;
35394;SDS011;21500;45.308;9.488;2023-04-24T20:47:55;5.15;;;4.28;;
35394;SDS011;21500;45.308;9.488;2023-04-24T20:50:21;5.38;;;4.75;;
35394;SDS011;21500;45.308;9.488;2023-04-24T20:52:47;6.20;;;4.72;;
35394;SDS011;21500;45.308;9.488;2023-04-24T20:55:12;5.78;;;5.18;;
35394;SDS011;21500;45.308;9.488;2023-04-24T20:57:39;6.05;;;5.10;;
35394;SDS011;21500;45.308;9.488;2023-04-24T21:00:05;8.23;;;6.15;;
35394;SDS011;21500;45.308;9.488;2023-04-24T21:02:35;7.93;;;5.97;;
35394;SDS011;21500;45.308;9.488;2023-04-24T21:05:01;6.97;;;6.32;;
35394;SDS011;21500;45.308;9.488;2023-04-24T21:07:27;7.57;;;5.78;;
35394;SDS011;21500;45.308;9.488;2023-04-24T21:09:53;6.68;;;5.97;;
35394;SDS011;21500;45.308;9.488;2023-04-24T21:12:19;7.18;;;6.35;;
35394;SDS011;21500;45.308;9.488;2023-04-24T21:14:45;11.70;;;6.75;;
35394;SDS011;21500;45.308;9.488;2023-04-24T21:17:10;8.15;;;6.35;;
35394;SDS011;21500;45.308;9.488;2023-04-24T21:19:36;8.75;;;6.00;;
35394;SDS011;21500;45.308;9.488;2023-04-24T21:22:03;6.35;;;5.45;;
35394;SDS011;21500;45.308;9.488;2023-04-24T21:24:29;6.78;;;4.88;;
35394;SDS011;21500;45.308;9.488;2023-04-24T21:26:54;5.38;;;4.60;;
35394;SDS011;21500;45.308;9.488;2023-04-24T21:29:20;6.15;;;4.43;;
35394;SDS011;21500;45.308;9.488;2023-04-24T21:31:47;5.75;;;3.30;;
35394;SDS011;21500;45.308;9.488;2023-04-24T21:34:14;3.50;;;3.20;;
35394;SDS011;21500;45.308;9.488;2023-04-24T21:36:40;4.25;;;3.20;;
35394;SDS011;21500;45.308;9.488;2023-04-24T21:39:05;7.90;;;4.10;;
35394;SDS011;21500;45.308;9.488;2023-04-24T21:41:31;3.85;;;3.00;;
35394;SDS011;21500;45.308;9.488;2023-04-24T21:43:57;6.15;;;2.80;;
35394;SDS011;21500;45.308;9.488;2023-04-24T21:46:25;4.43;;;2.85;;
35394;SDS011;21500;45.308;9.488;2023-04-24T21:48:51;2.88;;;2.13;;
35394;SDS011;21500;45.308;9.488;2023-04-24T21:51:17;7.82;;;2.70;;
35394;SDS011;21500;45.308;9.488;2023-04-24T21:53:45;3.08;;;2.08;;
35394;SDS011;21500;45.308;9.488;2023-04-24T21:56:11;2.97;;;2.20;;
35394;SDS011;21500;45.308;9.488;2023-04-24T21:58:37;3.78;;;2.20;;
35394;SDS011;21500;45.308;9.488;2023-04-24T22:01:03;3.40;;;3.10;;
35394;SDS011;21500;45.308;9.488;2023-04-24T22:03:29;2.65;;;1.95;;
35394;SDS011;21500;45.308;9.488;2023-04-24T22:05:54;2.97;;;1.77;;
35394;SDS011;21500;45.308;9.488;2023-04-24T22:08:21;2.38;;;1.90;;
35394;SDS011;21500;45.308;9.488;2023-04-24T22:10:47;2.15;;;1.95;;
35394;SDS011;21500;45.308;9.488;2023-04-24T22:13:15;3.05;;;2.05;;
35394;SDS011;21500;45.308;9.488;2023-04-24T22:15:40;2.10;;;1.40;;
35394;SDS011;21500;45.308;9.488;2023-04-24T22:18:08;1.48;;;1.30;;
35394;SDS011;21500;45.308;9.488;2023-04-24T22:20:36;1.63;;;1.50;;
35394;SDS011;21500;45.308;9.488;2023-04-24T22:23:01;3.47;;;1.80;;
35394;SDS011;21500;45.308;9.488;2023-04-24T22:25:28;2.28;;;1.42;;
35394;SDS011;21500;45.308;9.488;2023-04-24T22:27:53;2.25;;;1.45;;
35394;SDS011;21500;45.308;9.488;2023-04-24T22:30:19;2.40;;;1.67;;
35394;SDS011;21500;45.308;9.488;2023-04-24T22:32:45;1.77;;;1.40;;
35394;SDS011;21500;45.308;9.488;2023-04-24T22:35:11;1.73;;;1.40;;
35394;SDS011;21500;45.308;9.488;2023-04-24T22:37:37;1.77;;;1.42;;
35394;SDS011;21500;45.308;9.488;2023-04-24T22:40:04;4.40;;;1.20;;
35394;SDS011;21500;45.308;9.488;2023-04-24T22:42:32;4.30;;;1.58;;
35394;SDS011;21500;45.308;9.488;2023-04-24T22:44:58;3.22;;;1.70;;
35394;SDS011;21500;45.308;9.488;2023-04-24T22:47:24;1.80;;;1.02;;
35394;SDS011;21500;45.308;9.488;2023-04-24T22:49:50;1.17;;;1.08;;
35394;SDS011;21500;45.308;9.488;2023-04-24T22:52:18;1.58;;;1.20;;
35394;SDS011;21500;45.308;9.488;2023-04-24T22:54:44;3.42;;;1.23;;
35394;SDS011;21500;45.308;9.488;2023-04-24T22:57:10;1.33;;;0.90;;
35394;SDS011;21500;45.308;9.488;2023-04-24T22:59:37;1.92;;;1.00;;
35394;SDS011;21500;45.308;9.488;2023-04-24T23:02:03;2.78;;;1.33;;
35394;SDS011;21500;45.308;9.488;2023-04-24T23:04:28;1.67;;;0.90;;
35394;SDS011;21500;45.308;9.488;2023-04-24T23:06:54;3.88;;;1.10;;
35394;SDS011;21500;45.308;9.488;2023-04-24T23:09:20;1.00;;;0.77;;
35394;SDS011;21500;45.308;9.488;2023-04-24T23:11:46;3.08;;;2.25;;
35394;SDS011;21500;45.308;9.488;2023-04-24T23:14:12;0.82;;;0.77;;
35394;SDS011;21500;45.308;9.488;2023-04-24T23:16:38;1.60;;;0.95;;
35394;SDS011;21500;45.308;9.488;2023-04-24T23:19:05;1.30;;;1.10;;
35394;SDS011;21500;45.308;9.488;2023-04-24T23:21:34;1.00;;;0.85;;
35394;SDS011;21500;45.308;9.488;2023-04-24T23:24:00;1.80;;;1.48;;
35394;SDS011;21500;45.308;9.488;2023-04-24T23:26:25;2.55;;;1.10;;
35394;SDS011;21500;45.308;9.488;2023-04-24T23:28:51;1.23;;;1.00;;
35394;SDS011;21500;45.308;9.488;2023-04-24T23:31:17;1.63;;;0.93;;
35394;SDS011;21500;45.308;9.488;2023-04-24T23:33:43;2.33;;;1.10;;
35394;SDS011;21500;45.308;9.488;2023-04-24T23:36:08;2.38;;;0.90;;
35394;SDS011;21500;45.308;9.488;2023-04-24T23:38:35;3.03;;;1.33;;
35394;SDS011;21500;45.308;9.488;2023-04-24T23:41:01;2.40;;;0.93;;
35394;SDS011;21500;45.308;9.488;2023-04-24T23:43:27;2.63;;;1.15;;
35394;SDS011;21500;45.308;9.488;2023-04-24T23:45:52;0.90;;;0.80;;
35394;SDS011;21500;45.308;9.488;2023-04-24T23:48:18;1.58;;;1.10;;
35394;SDS011;21500;45.308;9.488;2023-04-24T23:50:44;3.28;;;1.33;;
35394;SDS011;21500;45.308;9.488;2023-04-24T23:53:10;2.88;;;1.33;;
35394;SDS011;21500;45.308;9.488;2023-04-24T23:55:35;2.45;;;1.20;;
35394;SDS011;21500;45.308;9.488;2023-04-24T23:58:02;1.63;;;1.13;;
